Time;durP1;ratioP1;P1;durP2;ratioP2;P2;SDS_P1;SDS_P2;PMS_P1;PMS_P2;Temp;Humidity;BMP_temperature;BMP_pressure;BME280_temperature;BME280_humidity;BME280_pressure;Samples;Min_cycle;Max_cycle;Signal;HPM_P1;HPM_P2
2022/11/27 00:00:33;;;;;;;26.50;13.77;;;2.80;29.10;;;;;;5089960;28;20206;-70
2022/11/27 00:02:59;;;;;;;23.67;13.47;;;2.70;32.80;;;;;;5088230;28;20191;-71
2022/11/27 00:05:25;;;;;;;23.00;14.07;;;2.70;32.90;;;;;;5080811;28;20179;-71
2022/11/27 00:07:50;;;;;;;28.20;13.57;;;2.70;33.00;;;;;;5086273;28;20176;-70
2022/11/27 00:10:16;;;;;;;40.73;19.83;;;2.70;32.90;;;;;;5074652;28;20546;-70
2022/11/27 00:12:41;;;;;;;35.70;18.37;;;2.70;33.10;;;;;;5087914;28;20195;-71
2022/11/27 00:15:07;;;;;;;32.43;16.00;;;2.70;32.40;;;;;;5087643;28;20175;-72
2022/11/27 00:17:33;;;;;;;24.83;13.70;;;2.60;32.80;;;;;;5092207;28;20187;-71
2022/11/27 00:19:58;;;;;;;28.03;14.73;;;2.60;29.80;;;;;;5087517;28;20234;-70
2022/11/27 00:22:25;;;;;;;32.97;14.70;;;2.60;27.10;;;;;;5078039;28;20220;-71
2022/11/27 00:24:51;;;;;;;32.87;13.77;;;2.60;26.60;;;;;;5085033;28;20176;-71
2022/11/27 00:27:16;;;;;;;23.07;12.20;;;2.60;28.10;;;;;;5085283;28;20441;-70
2022/11/27 00:29:42;;;;;;;24.07;12.57;;;2.50;23.30;;;;;;5084205;28;20266;-71
2022/11/27 00:32:08;;;;;;;25.43;13.60;;;2.50;27.40;;;;;;5095061;28;20590;-70
2022/11/27 00:34:34;;;;;;;30.10;14.20;;;2.50;28.60;;;;;;5085555;28;20236;-71
2022/11/27 00:37:00;;;;;;;22.93;11.77;;;2.50;26.70;;;;;;5090911;28;20242;-71
2022/11/27 00:39:26;;;;;;;19.20;12.40;;;2.50;27.40;;;;;;5077915;28;20520;-71
2022/11/27 00:41:52;;;;;;;24.53;13.07;;;2.60;30.90;;;;;;5090106;28;20406;-70
2022/11/27 00:44:18;;;;;;;27.13;12.90;;;2.60;33.40;;;;;;5089223;28;20925;-71
2022/11/27 00:46:43;;;;;;;29.50;14.33;;;2.90;50.40;;;;;;5065977;28;20571;-71
2022/11/27 00:49:11;;;;;;;33.73;15.47;;;3.30;80.10;;;;;;5071471;28;20350;-71
2022/11/27 00:51:37;;;;;;;32.23;14.03;;;3.70;85.10;;;;;;5085987;28;20210;-71
2022/11/27 00:54:03;;;;;;;28.00;12.97;;;4.00;84.50;;;;;;5090073;28;20458;-70
2022/11/27 00:56:34;;;;;;;27.90;12.23;;;4.30;83.20;;;;;;5081726;28;20247;-71
2022/11/27 00:59:00;;;;;;;28.93;13.60;;;4.50;74.70;;;;;;5083901;28;20427;-71
2022/11/27 01:01:28;;;;;;;26.70;12.27;;;4.80;70.70;;;;;;5089051;28;21182;-71
2022/11/27 01:03:56;;;;;;;27.07;13.97;;;4.90;62.60;;;;;;5090743;28;20187;-71
2022/11/27 01:06:22;;;;;;;24.17;12.57;;;5.00;58.90;;;;;;5085827;28;21032;-71
2022/11/27 01:08:48;;;;;;;28.83;14.40;;;5.00;55.70;;;;;;5091773;28;20404;-70
2022/11/27 01:11:16;;;;;;;25.03;12.83;;;5.00;53.50;;;;;;5083552;28;20426;-71
2022/11/27 01:13:42;;;;;;;23.50;12.17;;;5.00;51.70;;;;;;5078730;28;20223;-72
2022/11/27 01:16:16;;;;;;;25.47;12.60;;;5.10;52.50;;;;;;5073592;28;20411;-68
2022/11/27 01:18:43;;;;;;;25.87;12.60;;;5.20;50.60;;;;;;5072983;28;20259;-71
2022/11/27 01:21:10;;;;;;;24.47;12.53;;;5.20;45.70;;;;;;5067856;28;20782;-70
2022/11/27 01:23:36;;;;;;;31.37;12.77;;;5.20;38.70;;;;;;5087142;28;20461;-71
2022/11/27 01:26:05;;;;;;;20.77;11.70;;;5.20;42.70;;;;;;5070143;28;20870;-70
2022/11/27 01:28:31;;;;;;;26.87;11.17;;;5.20;38.40;;;;;;5087408;28;20191;-71
2022/11/27 01:30:56;;;;;;;27.23;11.83;;;5.20;35.40;;;;;;5076018;28;20417;-70
2022/11/27 01:33:22;;;;;;;28.07;11.00;;;5.20;35.20;;;;;;5084543;28;20892;-71
2022/11/27 01:35:59;;;;;;;21.57;10.60;;;5.30;35.30;;;;;;5083488;28;20207;-71
2022/11/27 01:38:25;;;;;;;23.77;12.17;;;5.30;35.20;;;;;;5078765;28;20177;-70
2022/11/27 01:41:05;;;;;;;21.30;11.40;;;5.30;35.10;;;;;;5078249;28;20464;-71
2022/11/27 01:43:41;;;;;;;19.17;11.60;;;5.30;35.20;;;;;;5086593;28;20437;-71
2022/11/27 01:46:27;;;;;;;18.67;11.03;;;5.20;35.10;;;;;;5081914;28;21020;-68
2022/11/27 01:48:58;;;;;;;21.73;12.10;;;5.10;35.00;;;;;;5102081;28;20412;-71
2022/11/27 01:51:24;;;;;;;25.43;11.53;;;5.00;34.90;;;;;;5054751;28;20435;-71
2022/11/27 01:53:52;;;;;;;24.33;12.47;;;5.00;35.10;;;;;;5086027;28;20954;-71
2022/11/27 01:56:19;;;;;;;22.30;12.67;;;5.00;35.10;;;;;;5072051;28;20171;-71
2022/11/27 01:58:45;;;;;;;20.23;11.13;;;4.90;34.90;;;;;;5081602;28;20542;-71
2022/11/27 02:01:10;;;;;;;22.23;12.00;;;5.00;35.00;;;;;;5074589;28;20495;-72
2022/11/27 02:03:36;;;;;;;19.83;11.50;;;4.90;35.00;;;;;;5083005;28;20497;-71
2022/11/27 02:06:02;;;;;;;24.13;11.40;;;4.90;34.90;;;;;;5078087;28;20187;-68
2022/11/27 02:08:27;;;;;;;25.27;11.17;;;4.90;35.00;;;;;;5086067;28;20245;-71
2022/11/27 02:11:04;;;;;;;19.23;10.93;;;4.90;37.60;;;;;;5088271;28;20642;-69
2022/11/27 02:13:35;;;;;;;18.57;10.57;;;4.90;35.00;;;;;;5089849;28;20205;-71
2022/11/27 02:16:22;;;;;;;18.10;11.10;;;4.90;34.90;;;;;;5087673;28;20442;-71
2022/11/27 02:19:01;;;;;;;21.60;11.87;;;4.90;35.20;;;;;;5090867;28;20957;-71
2022/11/27 02:21:44;;;;;;;16.17;10.47;;;4.90;35.00;;;;;;5085000;28;20426;-71
2022/11/27 02:24:40;;;;;;;24.37;9.90;;;4.80;32.60;;;;;;5058338;28;20454;-71
2022/11/27 02:27:26;;;;;;;21.87;10.20;;;4.80;34.70;;;;;;5081177;28;20422;-69
2022/11/27 02:29:56;;;;;;;23.13;10.20;;;4.60;34.60;;;;;;5078643;28;20579;-70
2022/11/27 02:32:58;;;;;;;19.57;10.97;;;4.60;34.60;;;;;;5074479;28;20434;-71
2022/11/27 02:35:58;;;;;;;22.47;11.20;;;4.50;34.50;;;;;;5015351;28;20451;-71
2022/11/27 02:38:37;;;;;;;28.63;11.80;;;4.40;34.50;;;;;;5073132;28;20419;-69
2022/11/27 02:41:15;;;;;;;29.03;12.50;;;4.30;34.40;;;;;;5059751;28;20413;-71
2022/11/27 02:43:45;;;;;;;18.67;11.93;;;4.40;32.30;;;;;;5085016;28;20467;-72
2022/11/27 02:46:12;;;;;;;22.13;13.27;;;4.40;34.50;;;;;;5082900;28;20464;-70
2022/11/27 02:49:02;;;;;;;26.63;12.40;;;4.40;34.50;;;;;;5072768;28;20410;-73
2022/11/27 02:51:36;;;;;;;18.87;10.70;;;4.40;34.40;;;;;;5069317;28;20421;-71
2022/11/27 02:54:09;;;;;;;17.50;10.03;;;4.30;32.20;;;;;;5072956;28;20552;-72
2022/11/27 02:56:35;;;;;;;19.00;10.53;;;4.30;34.50;;;;;;5078521;28;20505;-70
2022/11/27 02:59:06;;;;;;;19.10;10.87;;;3.80;33.90;;;;;;5073420;28;20928;-72
2022/11/27 03:01:37;;;;;;;18.80;10.07;;;4.10;34.20;;;;;;5092643;28;20811;-71
2022/11/27 03:04:10;;;;;;;23.20;10.50;;;4.10;34.20;;;;;;5071771;28;20521;-72
2022/11/27 03:06:42;;;;;;;24.40;11.03;;;4.00;34.30;;;;;;5085332;28;20414;-72
2022/11/27 03:09:18;;;;;;;15.20;10.50;;;3.90;34.00;;;;;;5082692;28;20509;-72
2022/11/27 03:11:44;;;;;;;20.20;10.03;;;3.80;33.90;;;;;;5088898;28;20776;-72
2022/11/27 03:14:12;;;;;;;18.17;10.20;;;3.70;33.90;;;;;;5082394;28;20457;-72
2022/11/27 03:16:59;;;;;;;19.67;10.50;;;3.70;33.90;;;;;;5084846;28;20426;-72
2022/11/27 03:19:39;;;;;;;16.20;9.77;;;3.60;33.90;;;;;;5071984;28;20409;-71
2022/11/27 03:22:05;;;;;;;19.57;9.93;;;3.40;31.60;;;;;;5075253;28;20421;-72
2022/11/27 03:24:34;;;;;;;18.93;9.50;;;3.40;33.70;;;;;;5088111;28;20420;-72
2022/11/27 03:27:00;;;;;;;18.70;10.73;;;3.30;33.60;;;;;;5057515;28;20194;-72
2022/11/27 03:29:34;;;;;;;21.47;10.17;;;3.30;33.70;;;;;;5076436;28;20437;-72
2022/11/27 03:32:00;;;;;;;17.03;10.50;;;3.20;31.30;;;;;;5081494;28;20520;-71
2022/11/27 03:34:27;;;;;;;17.73;10.63;;;3.20;33.60;;;;;;5066280;28;20997;-71
2022/11/27 03:36:53;;;;;;;20.10;9.07;;;3.20;33.50;;;;;;5066013;28;20432;-71
2022/11/27 03:39:21;;;;;;;18.80;10.60;;;3.00;36.10;;;;;;5080039;28;20529;-72
2022/11/27 03:42:01;;;;;;;21.03;11.37;;;3.00;33.30;;;;;;5070353;28;20178;-72
2022/11/27 03:44:54;;;;;;;18.90;10.37;;;3.00;33.40;;;;;;5073315;28;20453;-71
2022/11/27 03:47:42;;;;;;;19.00;10.07;;;2.90;33.20;;;;;;5083943;28;20485;-73
2022/11/27 03:50:08;;;;;;;16.73;9.60;;;2.80;33.20;;;;;;5088259;28;20509;-70
2022/11/27 03:52:45;;;;;;;17.80;9.90;;;2.80;33.30;;;;;;5084251;28;20901;-71
2022/11/27 03:55:24;;;;;;;18.90;10.00;;;2.70;33.10;;;;;;5081086;28;20172;-72
2022/11/27 03:57:55;;;;;;;22.57;9.93;;;2.70;33.10;;;;;;5076831;28;20477;-72
2022/11/27 04:00:21;;;;;;;16.70;9.73;;;2.70;33.10;;;;;;5090646;28;20948;-72
2022/11/27 04:02:50;;;;;;;18.83;10.67;;;2.70;33.10;;;;;;5065732;28;20538;-72
2022/11/27 04:05:16;;;;;;;16.27;10.07;;;2.60;33.00;;;;;;5080822;28;20182;-72
2022/11/27 04:07:42;;;;;;;19.37;10.20;;;2.60;33.10;;;;;;5089349;28;20440;-71
2022/11/27 04:10:09;;;;;;;15.70;9.83;;;2.60;33.10;;;;;;5064439;28;20454;-72
2022/11/27 04:12:34;;;;;;;18.17;10.67;;;2.50;30.80;;;;;;5080041;28;20201;-72
2022/11/27 04:15:00;;;;;;;17.47;10.40;;;2.40;32.90;;;;;;5080399;28;20468;-72
2022/11/27 04:17:26;;;;;;;17.10;10.60;;;2.40;33.10;;;;;;5085629;28;20241;-72
2022/11/27 04:19:51;;;;;;;19.33;10.73;;;2.40;32.90;;;;;;5088103;28;20527;-72
2022/11/27 04:22:17;;;;;;;20.23;11.03;;;2.30;30.60;;;;;;5081434;28;20809;-71
2022/11/27 04:24:43;;;;;;;22.23;11.63;;;2.30;32.90;;;;;;5068321;28;20191;-72
2022/11/27 04:27:08;;;;;;;20.90;12.23;;;2.30;44.50;;;;;;5083831;28;20248;-72
2022/11/27 04:29:35;;;;;;;21.13;12.53;;;2.30;49.50;;;;;;5089469;28;20646;-72
2022/11/27 04:32:01;;;;;;;24.63;12.13;;;0.80;48.80;;;;;;5084973;28;20180;-72
2022/11/27 04:34:26;;;;;;;22.67;11.60;;;2.30;52.10;;;;;;5084059;28;20535;-72
2022/11/27 04:36:52;;;;;;;24.63;12.47;;;2.30;49.10;;;;;;5079409;28;20437;-72
2022/11/27 04:39:17;;;;;;;25.07;12.20;;;2.30;49.20;;;;;;5083186;28;20239;-72
2022/11/27 04:41:43;;;;;;;22.37;13.00;;;2.30;46.40;;;;;;5073777;28;20259;-71
2022/11/27 04:44:10;;;;;;;21.60;11.97;;;2.20;42.80;;;;;;5081592;28;20566;-71
2022/11/27 04:46:36;;;;;;;20.27;11.87;;;2.10;45.20;;;;;;5088044;28;20556;-71
2022/11/27 04:49:01;;;;;;;25.13;12.40;;;2.00;44.30;;;;;;5083252;28;20434;-72
2022/11/27 04:51:27;;;;;;;19.00;11.80;;;2.00;45.90;;;;;;5087046;28;20184;-72
2022/11/27 04:53:52;;;;;;;19.63;12.03;;;1.80;47.90;;;;;;5061898;28;20264;-72
2022/11/27 04:56:18;;;;;;;21.70;12.13;;;1.80;47.90;;;;;;5070246;28;20168;-72
2022/11/27 04:58:43;;;;;;;20.53;12.40;;;1.70;51.70;;;;;;5079485;28;20267;-72
2022/11/27 05:01:09;;;;;;;19.10;11.53;;;1.70;54.50;;;;;;5089332;28;20643;-72
2022/11/27 05:03:35;;;;;;;26.53;11.00;;;1.70;48.00;;;;;;5074624;28;20570;-72
2022/11/27 05:06:01;;;;;;;20.10;10.53;;;1.60;48.40;;;;;;5085318;28;20183;-72
2022/11/27 05:08:29;;;;;;;25.13;11.93;;;1.70;51.20;;;;;;5074262;28;20989;-70
2022/11/27 05:11:06;;;;;;;19.90;11.33;;;1.70;49.50;;;;;;5084220;28;20461;-70
2022/11/27 05:13:32;;;;;;;19.53;11.50;;;1.60;47.10;;;;;;5092496;28;20449;-71
2022/11/27 05:15:57;;;;;;;27.70;12.37;;;1.70;53.00;;;;;;5088366;28;20433;-72
2022/11/27 05:18:23;;;;;;;21.23;12.10;;;2.00;49.60;;;;;;5091941;28;20402;-71
2022/11/27 05:20:58;;;;;;;20.87;11.53;;;1.60;50.40;;;;;;5079153;28;20177;-71
2022/11/27 05:23:24;;;;;;;18.40;11.93;;;1.60;52.30;;;;;;5088721;28;20509;-71
2022/11/27 05:25:50;;;;;;;19.43;11.17;;;1.60;53.00;;;;;;5090979;28;20410;-71
2022/11/27 05:28:15;;;;;;;18.53;11.17;;;1.70;55.10;;;;;;5077217;28;20444;-71
2022/11/27 05:30:41;;;;;;;17.87;11.10;;;1.70;52.10;;;;;;5091706;28;20175;-71
2022/11/27 05:33:06;;;;;;;19.87;11.13;;;1.70;46.90;;;;;;5085195;28;20208;-72
2022/11/27 05:35:32;;;;;;;20.23;10.87;;;1.70;50.20;;;;;;5077162;28;20176;-72
2022/11/27 05:37:58;;;;;;;18.50;10.97;;;1.70;51.30;;;;;;5090673;28;20176;-72
2022/11/27 05:40:23;;;;;;;18.00;11.10;;;1.70;51.30;;;;;;5069791;28;20325;-71
2022/11/27 05:42:49;;;;;;;18.30;11.50;;;-0.10;47.90;;;;;;5070176;28;20301;-72
2022/11/27 05:45:14;;;;;;;16.37;10.20;;;1.50;53.20;;;;;;5083509;28;20178;-72
2022/11/27 05:47:40;;;;;;;18.50;10.77;;;1.80;47.40;;;;;;5085470;28;20180;-72
2022/11/27 05:50:06;;;;;;;15.60;10.13;;;1.80;44.90;;;;;;5083516;28;20156;-69
2022/11/27 05:52:31;;;;;;;19.27;11.10;;;1.80;49.00;;;;;;5088452;28;20196;-72
2022/11/27 05:54:57;;;;;;;22.87;12.00;;;1.90;48.70;;;;;;5069296;28;20454;-72
2022/11/27 05:57:23;;;;;;;19.70;11.90;;;1.90;47.60;;;;;;5084305;28;20254;-72
2022/11/27 05:59:48;;;;;;;19.47;11.13;;;2.00;47.00;;;;;;5089828;28;20195;-72
2022/11/27 06:02:14;;;;;;;18.30;10.90;;;2.00;44.40;;;;;;5093504;28;20262;-72
2022/11/27 06:04:39;;;;;;;16.83;10.57;;;2.00;43.50;;;;;;5081123;28;20176;-72
2022/11/27 06:07:05;;;;;;;19.40;10.87;;;2.00;39.80;;;;;;5090444;28;20592;-71
2022/11/27 06:09:30;;;;;;;17.03;11.20;;;2.20;37.50;;;;;;5088926;28;20533;-72
2022/11/27 06:11:56;;;;;;;16.90;10.13;;;2.60;41.20;;;;;;5089897;28;20172;-72
2022/11/27 06:14:21;;;;;;;20.30;11.57;;;2.10;32.80;;;;;;5083887;28;20197;-71
2022/11/27 06:16:47;;;;;;;20.30;10.63;;;2.00;33.10;;;;;;5072223;28;20187;-72
2022/11/27 06:19:12;;;;;;;21.60;11.00;;;1.90;32.60;;;;;;5082215;28;20179;-72
2022/11/27 06:21:38;;;;;;;20.37;11.60;;;2.00;40.30;;;;;;5089550;28;20172;-72
2022/11/27 06:24:04;;;;;;;24.40;11.40;;;2.00;38.20;;;;;;5072154;28;20615;-72
2022/11/27 06:26:32;;;;;;;17.77;11.77;;;2.00;36.60;;;;;;5083887;28;20650;-72
2022/11/27 06:28:59;;;;;;;18.40;10.73;;;2.00;37.70;;;;;;5090633;28;20254;-72
2022/11/27 06:31:27;;;;;;;18.20;10.97;;;2.10;32.70;;;;;;5073781;28;20858;-72
2022/11/27 06:33:54;;;;;;;21.30;11.93;;;2.00;32.50;;;;;;5072130;28;20457;-71
2022/11/27 06:36:21;;;;;;;17.93;11.47;;;2.10;33.00;;;;;;5079857;28;20504;-72
2022/11/27 06:38:47;;;;;;;18.57;10.97;;;2.10;32.90;;;;;;5090867;28;20402;-70
2022/11/27 06:41:17;;;;;;;19.33;11.20;;;2.00;34.80;;;;;;5080644;28;20850;-72
2022/11/27 06:43:43;;;;;;;18.50;11.40;;;2.00;41.00;;;;;;5080276;28;20638;-71
2022/11/27 06:46:14;;;;;;;19.00;11.60;;;2.10;43.80;;;;;;5085839;28;20948;-71
2022/11/27 06:48:40;;;;;;;23.00;11.73;;;2.20;37.70;;;;;;5066034;28;20427;-72
2022/11/27 06:51:06;;;;;;;18.13;10.17;;;2.20;41.90;;;;;;5089468;28;20485;-71
2022/11/27 06:53:35;;;;;;;20.90;11.23;;;2.30;45.70;;;;;;5078588;28;20474;-71
2022/11/27 06:56:09;;;;;;;21.03;11.27;;;2.40;36.60;;;;;;5075562;28;20887;-72
2022/11/27 06:58:38;;;;;;;20.70;12.20;;;2.40;32.90;;;;;;5086086;28;20528;-71
2022/11/27 07:01:07;;;;;;;18.20;10.80;;;2.40;33.10;;;;;;5089419;28;20416;-70
2022/11/27 07:03:33;;;;;;;21.80;11.93;;;2.40;32.90;;;;;;5089371;28;20463;-72
2022/11/27 07:06:00;;;;;;;18.50;11.00;;;2.40;36.60;;;;;;5085733;28;20426;-72
2022/11/27 07:08:25;;;;;;;21.43;11.60;;;2.40;40.40;;;;;;5083732;28;20183;-72
2022/11/27 07:10:51;;;;;;;18.43;11.20;;;2.60;33.10;;;;;;5071178;28;20483;-72
2022/11/27 07:13:17;;;;;;;24.50;12.13;;;2.60;33.60;;;;;;5086278;28;20504;-72
2022/11/27 07:15:43;;;;;;;21.37;12.17;;;2.80;39.40;;;;;;5086971;28;20245;-71
2022/11/27 15:43:14;;;;;;;14.60;9.57;;;6.70;1.00;;;;;;5061707;27;21193;-71
2022/11/27 15:45:41;;;;;;;18.03;11.40;;;6.80;1.00;;;;;;5061342;28;20188;-70
2022/11/27 15:48:15;;;;;;;19.43;9.60;;;6.90;1.00;;;;;;5066143;28;20595;-70
2022/11/27 15:50:41;;;;;;;13.00;8.70;;;7.10;1.00;;;;;;5064713;28;20441;-71
2022/11/27 15:53:06;;;;;;;25.33;17.80;;;7.20;1.00;;;;;;5065833;28;20526;-71
2022/11/27 15:55:32;;;;;;;14.93;11.20;;;7.30;1.00;;;;;;5063706;28;20187;-70
2022/11/27 15:57:58;;;;;;;12.97;9.20;;;7.30;1.00;;;;;;5066279;28;20427;-71
2022/11/27 16:00:24;;;;;;;30.27;16.20;;;6.60;1.00;;;;;;5062817;28;20271;-70
2022/11/27 16:02:51;;;;;;;18.07;11.03;;;7.40;1.00;;;;;;5064700;28;20477;-71
2022/11/27 16:05:17;;;;;;;15.47;10.17;;;7.50;1.00;;;;;;5048513;28;20982;-71
2022/11/27 16:07:42;;;;;;;13.53;9.83;;;7.50;1.00;;;;;;5056829;28;20507;-70
2022/11/27 16:10:08;;;;;;;13.07;9.33;;;7.50;1.00;;;;;;5058841;28;20177;-69
2022/11/27 16:12:34;;;;;;;51.13;38.50;;;7.60;1.00;;;;;;5063754;28;20226;-70
2022/11/27 16:15:00;;;;;;;11.90;9.00;;;7.60;1.00;;;;;;5062867;28;20969;-70
2022/11/27 16:17:25;;;;;;;11.77;8.47;;;7.60;1.00;;;;;;5064617;28;20546;-69
2022/11/27 16:19:51;;;;;;;13.00;9.30;;;7.60;1.00;;;;;;5063870;28;20639;-70
2022/11/27 16:22:16;;;;;;;14.60;10.57;;;7.60;1.00;;;;;;5059562;28;20774;-70
2022/11/27 16:24:42;;;;;;;13.23;10.23;;;7.50;1.00;;;;;;5059645;28;20709;-70
2022/11/27 16:27:07;;;;;;;16.80;10.87;;;7.50;1.00;;;;;;5064673;28;20173;-71
2022/11/27 16:29:33;;;;;;;15.93;12.07;;;7.40;1.00;;;;;;5061298;28;20674;-71
2022/11/27 16:31:59;;;;;;;14.20;10.30;;;7.40;1.00;;;;;;5068015;28;20177;-70
2022/11/27 16:34:25;;;;;;;16.90;11.00;;;7.50;1.00;;;;;;5063263;28;20204;-70
2022/11/27 16:36:50;;;;;;;21.30;14.43;;;7.60;1.00;;;;;;5064705;28;20434;-70
2022/11/27 16:39:16;;;;;;;16.23;11.80;;;7.60;1.00;;;;;;5063781;28;20600;-70
2022/11/27 16:41:42;;;;;;;32.70;20.50;;;7.60;1.00;;;;;;5063184;28;20213;-70
2022/11/27 16:44:13;;;;;;;17.57;11.73;;;7.60;1.00;;;;;;5061877;28;20450;-71
2022/11/27 16:46:39;;;;;;;22.33;13.90;;;7.70;1.00;;;;;;5061398;28;20271;-71
2022/11/27 16:49:06;;;;;;;49.03;30.20;;;7.70;1.00;;;;;;5064303;28;20967;-72
2022/11/27 16:51:33;;;;;;;23.97;14.83;;;7.60;1.00;;;;;;5063992;28;20929;-71
2022/11/27 16:54:00;;;;;;;39.07;24.83;;;7.60;1.00;;;;;;5050599;28;20768;-71
2022/11/27 16:56:28;;;;;;;25.60;17.43;;;7.60;1.00;;;;;;5046391;28;20448;-71
2022/11/27 16:58:55;;;;;;;23.53;16.27;;;7.60;1.00;;;;;;5043085;28;21111;-70
2022/11/27 17:01:23;;;;;;;22.00;14.43;;;7.60;1.00;;;;;;5044765;28;20478;-71
2022/11/27 17:03:50;;;;;;;25.47;17.17;;;7.70;1.00;;;;;;5044667;28;20460;-70
2022/11/27 17:06:21;;;;;;;22.87;15.17;;;7.70;1.00;;;;;;5049786;28;20776;-70
2022/11/27 17:08:47;;;;;;;31.33;18.50;;;7.70;1.00;;;;;;5042770;28;20440;-71
2022/11/27 17:11:20;;;;;;;19.27;13.13;;;7.70;1.00;;;;;;5046014;28;20471;-70
2022/11/27 17:13:47;;;;;;;18.00;12.53;;;7.70;1.00;;;;;;5039385;28;20581;-71
2022/11/27 17:16:12;;;;;;;26.40;14.17;;;7.70;1.00;;;;;;5047922;28;20431;-70
2022/11/27 17:18:39;;;;;;;17.90;12.10;;;7.70;1.00;;;;;;5047737;28;20941;-69
2022/11/27 17:21:12;;;;;;;14.47;9.67;;;7.70;1.00;;;;;;5048349;28;20201;-70
2022/11/27 17:23:41;;;;;;;15.40;11.03;;;7.70;1.00;;;;;;5051015;28;20428;-70
2022/11/27 17:26:10;;;;;;;22.90;15.00;;;7.70;1.00;;;;;;5049789;28;20529;-70
2022/11/27 17:28:36;;;;;;;16.50;10.80;;;7.70;1.00;;;;;;5046038;28;20534;-69
2022/11/27 17:31:02;;;;;;;32.77;20.20;;;7.70;1.00;;;;;;5048192;28;20984;-68
2022/11/27 17:33:27;;;;;;;18.23;11.23;;;7.60;1.00;;;;;;5048290;28;20195;-70
2022/11/27 17:35:53;;;;;;;13.67;9.70;;;7.60;1.00;;;;;;5048013;28;20452;-70
2022/11/27 17:38:19;;;;;;;14.37;9.70;;;7.60;1.00;;;;;;5048660;28;20235;-70
2022/11/27 17:40:44;;;;;;;25.57;14.80;;;7.60;1.00;;;;;;5049429;28;20177;-70
2022/11/27 17:43:10;;;;;;;18.77;12.17;;;7.60;1.00;;;;;;5048082;28;20201;-70
2022/11/27 17:45:39;;;;;;;16.53;11.30;;;7.60;1.00;;;;;;5050185;28;20228;-69
2022/11/27 17:48:05;;;;;;;20.93;12.50;;;7.60;1.00;;;;;;5049609;28;20576;-71
2022/11/27 17:50:31;;;;;;;17.67;12.30;;;7.60;1.00;;;;;;5049924;28;20412;-70
2022/11/27 17:52:56;;;;;;;18.33;12.63;;;7.60;1.00;;;;;;5048207;28;20276;-70
2022/11/27 17:55:22;;;;;;;16.27;11.90;;;7.60;1.00;;;;;;5038965;28;20229;-70
2022/11/27 17:57:47;;;;;;;12.60;9.40;;;7.70;1.00;;;;;;5043775;28;20607;-70
2022/11/27 18:00:15;;;;;;;9.40;6.47;;;7.70;1.00;;;;;;5043526;28;20996;-70
2022/11/27 18:02:41;;;;;;;10.40;5.10;;;7.90;1.00;;;;;;5047190;28;20729;-70
2022/11/27 18:05:07;;;;;;;6.37;4.47;;;8.10;1.00;;;;;;5040025;28;20444;-68
2022/11/27 18:07:32;;;;;;;11.07;5.07;;;8.30;1.00;;;;;;5048394;28;20565;-70
2022/11/27 18:09:58;;;;;;;12.83;7.70;;;8.40;1.00;;;;;;5049083;28;20181;-70
2022/11/27 18:12:23;;;;;;;14.27;9.63;;;8.50;1.00;;;;;;5042943;28;20655;-69
2022/11/27 18:14:51;;;;;;;15.00;10.20;;;8.60;1.00;;;;;;5044381;28;20196;-70
2022/11/27 18:17:18;;;;;;;13.60;8.73;;;8.50;1.00;;;;;;5046105;28;20228;-71
2022/11/27 18:19:43;;;;;;;11.70;8.63;;;8.40;1.00;;;;;;5039508;28;20522;-70
2022/11/27 18:22:11;;;;;;;15.67;9.57;;;8.20;1.00;;;;;;5046967;28;20768;-71
2022/11/27 18:24:40;;;;;;;12.20;8.80;;;8.20;1.00;;;;;;5033786;28;20202;-70
2022/11/27 18:27:06;;;;;;;12.90;8.10;;;8.10;1.00;;;;;;5048234;28;20415;-71
2022/11/27 18:29:32;;;;;;;6.23;5.30;;;8.10;1.00;;;;;;5040300;28;20751;-72
2022/11/27 18:31:57;;;;;;;8.43;4.60;;;8.20;1.00;;;;;;5048479;28;20213;-70
2022/11/27 18:34:23;;;;;;;6.17;4.27;;;8.70;1.00;;;;;;5048443;28;20203;-71
2022/11/27 18:36:48;;;;;;;7.30;3.77;;;8.40;1.00;;;;;;5045287;28;20260;-70
2022/11/27 18:39:14;;;;;;;6.60;4.17;;;8.50;1.00;;;;;;5045657;28;20177;-71
2022/11/27 18:41:40;;;;;;;5.72;4.50;;;8.60;1.00;;;;;;5046492;28;20442;-71
2022/11/27 18:44:05;;;;;;;9.30;4.57;;;8.60;1.00;;;;;;5046700;28;20864;-71
2022/11/27 18:46:31;;;;;;;7.33;4.93;;;8.70;1.00;;;;;;5046163;28;20212;-69
2022/11/27 18:48:56;;;;;;;6.70;4.20;;;8.70;1.00;;;;;;5043710;28;20183;-70
2022/11/27 18:51:24;;;;;;;5.93;4.10;;;8.70;1.00;;;;;;5044347;28;20632;-70
2022/11/27 18:53:50;;;;;;;5.20;4.20;;;8.70;1.00;;;;;;5046489;28;20716;-71
2022/11/27 18:56:19;;;;;;;5.13;3.90;;;8.70;1.00;;;;;;5048601;28;20957;-70
2022/11/27 18:58:45;;;;;;;5.50;4.03;;;8.70;1.00;;;;;;5048061;28;20419;-70
2022/11/27 19:01:14;;;;;;;6.30;4.43;;;8.60;1.00;;;;;;5050761;28;20470;-70
2022/11/27 19:03:40;;;;;;;6.27;4.53;;;8.70;1.00;;;;;;5046288;28;20530;-71
2022/11/27 19:06:08;;;;;;;5.40;4.60;;;8.70;1.00;;;;;;5046340;28;20427;-70
2022/11/27 19:08:34;;;;;;;5.90;4.23;;;8.70;1.00;;;;;;5047892;28;20426;-73
2022/11/27 19:11:01;;;;;;;5.90;4.60;;;8.70;1.00;;;;;;5045248;28;20436;-69
2022/11/27 19:13:28;;;;;;;7.80;4.80;;;8.80;1.00;;;;;;5048550;28;20573;-70
2022/11/27 19:15:53;;;;;;;7.80;5.70;;;8.80;1.00;;;;;;5046733;28;20462;-70
2022/11/27 19:18:19;;;;;;;5.23;4.67;;;8.80;1.00;;;;;;5050440;28;20878;-70
2022/11/27 19:20:46;;;;;;;6.87;4.70;;;8.70;1.00;;;;;;5043418;28;20183;-69
2022/11/27 19:23:13;;;;;;;5.57;4.97;;;8.70;1.00;;;;;;5049150;28;20204;-70
2022/11/27 19:25:38;;;;;;;4.90;4.33;;;8.70;1.00;;;;;;5044467;28;20916;-71
2022/11/27 19:28:05;;;;;;;5.80;4.23;;;8.70;1.00;;;;;;5049743;28;20439;-70
2022/11/27 19:30:33;;;;;;;5.50;3.93;;;8.60;1.00;;;;;;5049628;28;20175;-70
2022/11/27 19:32:58;;;;;;;5.87;4.30;;;8.60;1.00;;;;;;5046009;28;20432;-70
2022/11/27 19:35:25;;;;;;;7.10;4.20;;;8.60;1.00;;;;;;5039474;28;20442;-70
2022/11/27 19:37:51;;;;;;;6.03;4.30;;;8.60;1.00;;;;;;5047018;28;20647;-70
2022/11/27 19:40:17;;;;;;;5.47;3.83;;;8.60;1.00;;;;;;5041831;28;20435;-70
2022/11/27 19:42:44;;;;;;;4.50;4.07;;;8.60;1.00;;;;;;5048910;28;20561;-70
2022/11/27 19:45:10;;;;;;;6.90;4.90;;;8.60;1.00;;;;;;5043599;28;20174;-70
2022/11/27 19:47:36;;;;;;;7.07;5.13;;;9.00;1.00;;;;;;5049054;28;20500;-70
2022/11/27 19:50:02;;;;;;;6.57;4.60;;;8.50;1.00;;;;;;5047296;28;20853;-68
2022/11/27 19:52:28;;;;;;;7.00;4.70;;;8.60;1.00;;;;;;5048328;28;20298;-70
2022/11/27 19:54:54;;;;;;;12.00;6.00;;;8.60;1.00;;;;;;5049090;28;20422;-70
2022/11/27 19:57:19;;;;;;;8.07;5.40;;;8.60;1.00;;;;;;5048798;28;20223;-71
2022/11/27 19:59:45;;;;;;;5.20;4.13;;;8.60;1.00;;;;;;5049482;28;20176;-71
2022/11/27 20:02:13;;;;;;;4.63;3.97;;;8.60;1.00;;;;;;5050747;28;20197;-70
2022/11/27 20:04:38;;;;;;;6.83;4.90;;;8.50;1.00;;;;;;5040770;28;20189;-69
2022/11/27 20:07:05;;;;;;;5.30;4.77;;;8.50;1.00;;;;;;5048275;28;20779;-71
2022/11/27 20:09:31;;;;;;;6.60;5.10;;;8.50;1.00;;;;;;5040259;28;20255;-70
2022/11/27 20:11:58;;;;;;;5.90;4.87;;;8.50;1.00;;;;;;5043356;28;20929;-70
2022/11/27 20:14:24;;;;;;;5.07;3.90;;;8.50;1.00;;;;;;5048620;28;20941;-70
2022/11/27 20:16:50;;;;;;;6.57;4.63;;;8.50;1.00;;;;;;5047570;28;20420;-70
2022/11/27 20:19:15;;;;;;;9.20;4.77;;;8.40;1.00;;;;;;5041396;28;20177;-70
2022/11/27 20:21:41;;;;;;;6.57;4.80;;;8.10;1.00;;;;;;5039048;28;20606;-67
2022/11/27 20:24:07;;;;;;;7.13;4.33;;;8.40;1.00;;;;;;5043053;28;20185;-71
2022/11/27 20:26:33;;;;;;;5.57;4.37;;;8.40;1.00;;;;;;5048495;28;20204;-70
2022/11/27 20:28:59;;;;;;;6.57;5.23;;;8.40;1.00;;;;;;5048055;28;20173;-70
2022/11/27 20:31:27;;;;;;;5.53;4.47;;;8.30;1.00;;;;;;5051051;28;20482;-70
2022/11/27 20:33:55;;;;;;;7.63;4.63;;;8.30;1.00;;;;;;5051575;28;20460;-70
2022/11/27 20:36:22;;;;;;;7.17;4.93;;;8.30;1.00;;;;;;5049996;28;20427;-71
2022/11/27 20:38:48;;;;;;;7.30;4.97;;;8.30;1.00;;;;;;5049421;28;20463;-70
2022/11/27 20:41:16;;;;;;;6.83;4.70;;;8.30;1.00;;;;;;5050855;28;21037;-70
2022/11/27 20:43:42;;;;;;;5.97;4.67;;;8.20;1.00;;;;;;5050822;28;20513;-70
2022/11/27 20:46:10;;;;;;;6.37;5.10;;;8.20;1.00;;;;;;5047378;28;20442;-70
2022/11/27 20:48:35;;;;;;;7.50;4.20;;;8.20;1.00;;;;;;5051712;28;20419;-69
2022/11/27 20:51:12;;;;;;;7.77;5.77;;;8.20;1.00;;;;;;5050898;28;20399;-67
2022/11/27 20:53:39;;;;;;;6.00;5.00;;;8.20;1.00;;;;;;5049600;28;20334;-70
2022/11/27 20:56:06;;;;;;;6.53;5.00;;;8.20;1.00;;;;;;5051390;28;20427;-70
2022/11/27 20:58:37;;;;;;;9.50;4.90;;;8.20;1.00;;;;;;5049545;28;20802;-69
2022/11/27 21:01:18;;;;;;;6.13;4.93;;;8.20;1.00;;;;;;5044037;28;20513;-67
2022/11/27 21:03:46;;;;;;;7.43;5.20;;;8.20;1.00;;;;;;5049735;28;20463;-70
2022/11/27 21:06:13;;;;;;;7.20;5.00;;;8.20;1.00;;;;;;5048241;28;20424;-69
2022/11/27 21:08:40;;;;;;;8.20;5.00;;;8.10;1.00;;;;;;5050232;28;20435;-70
2022/11/27 21:11:15;;;;;;;6.53;5.00;;;8.10;1.00;;;;;;5050716;28;20410;-71
2022/11/27 21:13:40;;;;;;;6.90;5.40;;;8.10;1.00;;;;;;5045967;28;20809;-67